createdAt,value
2019-02-19T00:00:58.095Z,76.50
2019-02-19T00:03:27.011Z,76.60
2019-02-19T00:05:56.019Z,76.50
2019-02-19T00:08:24.935Z,75.50
2019-02-19T00:10:53.788Z,75.50
2019-02-19T00:13:22.741Z,74.60
2019-02-19T00:15:51.726Z,73.40
2019-02-19T00:18:20.632Z,70.50
2019-02-19T00:20:49.557Z,71.00
2019-02-19T00:23:18.464Z,69.90
2019-02-19T00:25:47.434Z,68.90
2019-02-19T00:28:19.121Z,68.60
2019-02-19T00:30:48.031Z,69.20
2019-02-19T00:33:16.870Z,68.20
2019-02-19T00:35:45.773Z,67.10
2019-02-19T00:38:14.568Z,66.10
2019-02-19T00:40:43.459Z,65.00
2019-02-19T00:43:12.307Z,64.40
2019-02-19T00:45:41.185Z,63.30
2019-02-19T00:48:10.412Z,64.30
2019-02-19T00:50:39.357Z,63.80
2019-02-19T00:53:08.280Z,63.30
2019-02-19T00:55:37.094Z,63.40
2019-02-19T00:58:05.987Z,63.30
2019-02-19T01:00:34.845Z,63.20
2019-02-19T01:03:03.845Z,62.10
2019-02-19T01:05:32.858Z,63.30
2019-02-19T01:08:01.683Z,63.40
2019-02-19T01:10:30.601Z,63.30
2019-02-19T01:12:59.540Z,63.40
2019-02-19T01:15:28.424Z,62.20
2019-02-19T01:17:57.265Z,62.70
2019-02-19T01:20:26.123Z,63.30
2019-02-19T01:22:54.935Z,63.20
2019-02-19T01:25:23.899Z,64.30
2019-02-19T01:27:52.787Z,65.20
2019-02-19T01:30:21.683Z,66.60
2019-02-19T01:32:50.673Z,65.80
2019-02-19T01:35:19.614Z,65.10
2019-02-19T01:37:49.120Z,63.30
2019-02-19T01:40:37.446Z,60.30
2019-02-19T01:43:06.348Z,59.30
2019-02-19T01:45:35.183Z,58.70
2019-02-19T01:48:04.194Z,60.40
2019-02-19T01:50:33.087Z,60.00
2019-02-19T01:53:02.035Z,60.50
2019-02-19T01:55:31.052Z,59.60
2019-02-19T01:57:59.862Z,58.60
2019-02-19T02:00:28.830Z,58.70
2019-02-19T02:02:57.659Z,59.20
2019-02-19T02:05:26.526Z,59.20
2019-02-19T02:07:55.382Z,59.00
2019-02-19T02:10:24.276Z,59.00
2019-02-19T02:12:53.197Z,59.50
2019-02-19T02:15:22.080Z,60.50
2019-02-19T02:17:51.291Z,62.10
2019-02-19T02:20:20.218Z,63.20
2019-02-19T02:22:49.047Z,63.30
2019-02-19T02:25:17.881Z,62.30
2019-02-19T02:27:46.721Z,62.50
2019-02-19T02:30:15.582Z,62.40
2019-02-19T02:32:44.527Z,62.20
2019-02-19T02:35:13.429Z,62.00
2019-02-19T02:37:42.343Z,61.20
2019-02-19T02:40:11.232Z,61.60
2019-02-19T02:42:40.047Z,61.60
2019-02-19T02:45:09.043Z,62.20
2019-02-19T02:47:38.114Z,62.90
2019-02-19T02:50:07.075Z,63.70
2019-02-19T02:52:36.037Z,65.10
2019-02-19T02:55:05.232Z,65.80
2019-02-19T02:57:34.138Z,67.90
2019-02-19T03:00:03.023Z,68.70
2019-02-19T03:02:31.978Z,69.60
2019-02-19T03:05:00.804Z,70.00
2019-02-19T03:07:34.332Z,71.10
2019-02-19T03:10:03.219Z,72.60
2019-02-19T03:12:32.114Z,72.60
2019-02-19T03:15:01.027Z,73.90
2019-02-19T03:17:30.150Z,75.10
2019-02-19T03:19:59.149Z,75.40
2019-02-19T03:22:27.959Z,76.30
2019-02-19T03:24:56.794Z,77.50
2019-02-19T03:27:25.753Z,78.10
2019-02-19T03:29:54.887Z,78.80
2019-02-19T03:32:23.793Z,79.70
2019-02-19T03:34:52.713Z,80.10
2019-02-19T03:37:21.531Z,80.60
2019-02-19T03:39:50.429Z,81.80
2019-02-19T03:42:19.616Z,83.30
2019-02-19T03:44:48.758Z,84.90
2019-02-19T03:47:17.761Z,85.70
2019-02-19T03:49:46.742Z,86.50
2019-02-19T03:52:15.619Z,86.30
2019-02-19T03:54:44.995Z,87.60
2019-02-19T03:57:14.324Z,87.70
2019-02-19T03:59:43.733Z,88.90
2019-02-19T04:02:12.713Z,90.30
2019-02-19T04:04:41.688Z,90.60
2019-02-19T04:07:10.619Z,91.20
2019-02-19T04:09:39.793Z,91.50
2019-02-19T04:12:08.813Z,92.10
2019-02-19T04:14:37.842Z,92.30
2019-02-19T04:17:06.833Z,93.00
2019-02-19T04:19:35.644Z,94.00
2019-02-19T04:22:04.703Z,94.90
2019-02-19T04:24:33.561Z,95.80
2019-02-19T04:27:02.517Z,96.90
2019-02-19T04:29:31.363Z,97.70
2019-02-19T04:32:00.283Z,98.40
2019-02-19T04:34:29.097Z,99.30
2019-02-19T04:36:58.067Z,99.60
2019-02-19T04:39:27.188Z,99.90
2019-02-19T04:41:56.138Z,99.90
2019-02-19T04:44:24.976Z,99.90
2019-02-19T04:46:54.119Z,99.90
2019-02-19T04:49:23.098Z,99.90
2019-02-19T04:51:51.990Z,99.90
2019-02-19T04:54:20.879Z,99.90
2019-02-19T04:56:49.796Z,99.90
2019-02-19T04:59:18.764Z,99.90
2019-02-19T05:01:47.720Z,99.90
2019-02-19T05:04:16.537Z,99.90
2019-02-19T05:06:45.826Z,99.90
2019-02-19T05:09:14.837Z,99.90
2019-02-19T05:11:43.674Z,99.90
2019-02-19T05:14:12.998Z,99.90
2019-02-19T05:16:41.907Z,99.90
2019-02-19T05:19:10.772Z,99.90
2019-02-19T05:21:39.683Z,99.90
2019-02-19T05:24:10.797Z,99.90
2019-02-19T05:26:39.725Z,99.90
2019-02-19T05:29:08.547Z,99.90
2019-02-19T05:31:37.414Z,99.90
2019-02-19T05:34:06.265Z,99.90
2019-02-19T05:36:35.166Z,99.90
2019-02-19T05:39:05.296Z,99.90
2019-02-19T05:41:34.170Z,99.90
2019-02-19T05:44:03.057Z,99.90
2019-02-19T05:46:31.946Z,99.90
2019-02-19T05:49:00.792Z,99.90
2019-02-19T05:51:29.829Z,99.90
2019-02-19T05:53:59.082Z,99.90
2019-02-19T05:56:27.972Z,99.90
2019-02-19T05:58:56.831Z,99.90
2019-02-19T06:01:25.783Z,99.90
2019-02-19T06:03:54.688Z,99.90
2019-02-19T06:06:23.670Z,99.90
2019-02-19T06:08:52.699Z,99.90
2019-02-19T06:11:21.647Z,99.90
2019-02-19T06:13:50.943Z,99.90
2019-02-19T06:16:19.846Z,99.90
2019-02-19T06:18:48.849Z,99.90
2019-02-19T06:21:17.783Z,99.90
2019-02-19T06:23:46.592Z,99.90
2019-02-19T06:26:15.476Z,99.90
2019-02-19T06:28:44.795Z,99.90
2019-02-19T06:31:13.682Z,99.90
2019-02-19T06:36:17.114Z,99.90
2019-02-19T06:38:46.015Z,99.90
2019-02-19T06:41:15.423Z,99.90
2019-02-19T06:43:44.306Z,99.90
2019-02-19T06:46:13.212Z,99.90
2019-02-19T06:48:42.135Z,99.90
2019-02-19T06:51:11.133Z,99.90
2019-02-19T06:53:40.015Z,99.90
2019-02-19T06:56:08.908Z,99.90
2019-02-19T06:58:38.555Z,99.90
2019-02-19T07:01:08.015Z,99.90
2019-02-19T07:03:58.679Z,99.90
2019-02-19T07:06:28.121Z,99.90
2019-02-19T07:08:57.102Z,99.90
2019-02-19T07:11:26.090Z,99.90
2019-02-19T07:13:55.063Z,99.90
2019-02-19T07:16:23.962Z,99.90
2019-02-19T07:18:52.785Z,99.90
2019-02-19T07:21:21.722Z,99.90
2019-02-19T07:23:50.576Z,99.90
2019-02-19T07:26:19.544Z,99.90
2019-02-19T07:28:50.492Z,99.90
2019-02-19T07:31:19.433Z,99.90
2019-02-19T07:33:48.314Z,99.90
2019-02-19T07:36:17.329Z,99.90
2019-02-19T07:38:46.261Z,99.90
2019-02-19T07:41:15.291Z,99.90
2019-02-19T07:43:44.131Z,99.90
2019-02-19T07:46:13.042Z,99.90
2019-02-19T07:48:41.995Z,99.90
2019-02-19T07:51:11.135Z,99.90
2019-02-19T07:53:40.653Z,99.90
2019-02-19T07:56:09.491Z,99.90
2019-02-19T07:58:38.491Z,99.90
2019-02-19T08:01:07.461Z,99.90
2019-02-19T08:03:36.291Z,99.90
2019-02-19T08:06:05.187Z,99.90
2019-02-19T08:08:34.189Z,99.90
2019-02-19T08:11:03.015Z,99.90
2019-02-19T08:13:32.017Z,99.90
2019-02-19T08:16:00.940Z,99.90
2019-02-19T08:18:29.933Z,99.90
2019-02-19T08:20:59.252Z,99.90
2019-02-19T08:23:29.847Z,99.90
2019-02-19T08:25:59.785Z,99.90
2019-02-19T08:28:28.746Z,99.90
2019-02-19T08:30:57.586Z,99.90
2019-02-19T08:36:01.156Z,99.90
2019-02-19T08:38:29.999Z,99.90
2019-02-19T08:43:33.619Z,99.90
2019-02-19T08:46:02.467Z,99.90
2019-02-19T08:48:31.453Z,99.90
2019-02-19T08:51:00.408Z,99.90
2019-02-19T08:53:29.265Z,99.90
2019-02-19T08:55:58.462Z,99.90
2019-02-19T08:58:27.544Z,99.90
2019-02-19T09:00:56.415Z,99.90
2019-02-19T09:03:28.001Z,99.90
2019-02-19T09:05:56.931Z,99.90
2019-02-19T09:08:25.805Z,99.90
2019-02-19T09:10:56.435Z,99.90
2019-02-19T09:13:25.288Z,99.90
2019-02-19T09:18:28.628Z,99.90
2019-02-19T09:20:57.500Z,99.90
2019-02-19T09:23:27.130Z,99.90
2019-02-19T09:25:56.025Z,99.90
2019-02-19T09:28:25.455Z,99.90
2019-02-19T09:30:56.068Z,99.90
2019-02-19T09:33:24.959Z,99.90
2019-02-19T09:35:53.810Z,99.90
2019-02-19T09:38:23.385Z,99.80
2019-02-19T09:40:52.319Z,99.90
2019-02-19T09:43:21.304Z,99.90
2019-02-19T09:48:25.044Z,98.70
2019-02-19T09:50:53.944Z,98.90
2019-02-19T09:53:22.975Z,97.70
2019-02-19T09:55:51.913Z,98.30
2019-02-19T09:58:20.740Z,98.30
2019-02-19T10:00:50.010Z,97.20
2019-02-19T10:03:18.937Z,93.30
2019-02-19T10:05:48.218Z,91.10
2019-02-19T10:08:18.348Z,90.40
2019-02-19T10:10:47.283Z,90.80
2019-02-19T10:15:51.250Z,84.80
2019-02-19T10:20:49.713Z,83.90
2019-02-19T10:23:18.591Z,73.50
2019-02-19T10:25:47.489Z,63.80
2019-02-19T10:28:16.394Z,66.20
2019-02-19T10:30:45.317Z,62.20
2019-02-19T10:33:14.319Z,52.80
2019-02-19T10:35:43.255Z,53.50
2019-02-19T10:38:12.156Z,52.70
2019-02-19T10:40:41.143Z,50.80
2019-02-19T10:43:11.074Z,48.50
2019-02-19T10:45:40.111Z,49.30
2019-02-19T10:48:09.083Z,50.20
2019-02-19T10:50:37.993Z,50.00
2019-02-19T10:53:06.957Z,51.60
2019-02-19T10:55:37.722Z,54.70
2019-02-19T10:58:06.686Z,51.10
2019-02-19T11:00:35.846Z,54.10
2019-02-19T11:03:05.256Z,54.20
2019-02-19T11:05:34.303Z,50.60
2019-02-19T11:08:03.491Z,49.50
2019-02-19T11:10:32.680Z,48.80
2019-02-19T11:13:01.580Z,50.00
2019-02-19T11:15:30.717Z,48.40
2019-02-19T11:18:01.379Z,49.00
2019-02-19T11:20:30.600Z,50.80
2019-02-19T11:22:59.479Z,50.20
2019-02-19T11:25:28.336Z,50.70
2019-02-19T11:27:57.125Z,47.50
2019-02-19T11:30:26.126Z,47.60
2019-02-19T11:32:54.974Z,47.20
2019-02-19T11:35:23.957Z,43.70
2019-02-19T11:37:54.747Z,43.30
2019-02-19T11:40:24.153Z,42.60
2019-02-19T11:42:53.611Z,40.80
2019-02-19T11:45:23.977Z,41.40
2019-02-19T11:47:53.207Z,41.30
2019-02-19T11:50:22.372Z,40.80
2019-02-19T11:52:53.492Z,39.40
2019-02-19T11:55:22.149Z,40.00
2019-02-19T11:57:51.076Z,40.40
2019-02-19T12:00:24.418Z,39.40
2019-02-19T12:02:53.532Z,38.20
2019-02-19T12:05:24.898Z,38.00
2019-02-19T12:10:28.858Z,38.00
2019-02-19T12:12:57.969Z,38.10
2019-02-19T12:15:34.872Z,37.70
2019-02-19T12:17:58.316Z,37.70
2019-02-19T12:20:27.166Z,37.60
2019-02-19T12:22:57.156Z,38.00
2019-02-19T12:25:26.224Z,38.20
2019-02-19T12:27:55.912Z,37.10
2019-02-19T12:33:05.837Z,37.50
2019-02-19T12:35:35.039Z,36.10
2019-02-19T12:38:04.377Z,36.20
2019-02-19T12:40:33.522Z,36.10
2019-02-19T12:43:02.347Z,37.10
2019-02-19T12:45:31.231Z,37.50
2019-02-19T12:48:00.521Z,37.80
2019-02-19T12:50:29.570Z,36.90
2019-02-19T12:52:58.403Z,38.50
2019-02-19T12:55:27.358Z,36.00
2019-02-19T12:57:56.653Z,36.70
2019-02-19T13:00:26.128Z,38.90
2019-02-19T13:02:55.518Z,42.00
2019-02-19T13:05:24.629Z,40.90
2019-02-19T13:10:28.814Z,38.30
2019-02-19T13:12:57.737Z,37.80
2019-02-19T13:15:27.632Z,36.90
2019-02-19T13:17:56.729Z,37.40
2019-02-19T13:20:26.096Z,37.80
2019-02-19T13:22:57.719Z,37.40
2019-02-19T13:25:26.645Z,37.60
2019-02-19T13:27:55.977Z,36.30
2019-02-19T13:30:25.490Z,36.40
2019-02-19T13:32:54.712Z,38.50
2019-02-19T13:35:23.560Z,38.60
2019-02-19T13:37:53.151Z,37.60
2019-02-19T13:40:22.412Z,36.80
2019-02-19T13:42:51.265Z,37.90
2019-02-19T13:45:20.266Z,38.80
2019-02-19T13:47:49.253Z,40.10
2019-02-19T13:50:19.752Z,40.40
2019-02-19T13:53:07.690Z,41.90
2019-02-19T13:55:39.494Z,39.00
2019-02-19T13:58:08.593Z,38.10
2019-02-19T14:00:39.917Z,38.20
2019-02-19T14:03:09.263Z,38.10
2019-02-19T14:05:41.252Z,38.10
2019-02-19T14:08:14.585Z,37.80
2019-02-19T14:10:42.445Z,39.00
2019-02-19T14:13:11.402Z,37.90
2019-02-19T14:16:10.014Z,39.80
2019-02-19T14:19:07.679Z,38.80
2019-02-19T14:21:56.605Z,39.10
2019-02-19T14:24:44.634Z,39.00
2019-02-19T14:27:33.099Z,37.80
2019-02-19T14:30:33.507Z,37.80
2019-02-19T14:33:21.659Z,37.80
2019-02-19T14:36:25.455Z,37.40
2019-02-19T14:39:13.592Z,37.90
2019-02-19T14:42:08.041Z,37.00
2019-02-19T14:45:02.734Z,36.60
2019-02-19T14:48:03.980Z,36.50
2019-02-19T14:50:52.431Z,36.20
2019-02-19T14:56:41.815Z,34.50
2019-02-19T14:59:39.036Z,35.40
2019-02-19T15:02:27.078Z,37.40
2019-02-19T15:05:23.598Z,37.00
2019-02-19T15:08:17.853Z,36.70
2019-02-19T15:11:09.009Z,38.00
2019-02-19T15:13:52.943Z,38.90
2019-02-19T15:16:39.837Z,40.10
2019-02-19T15:19:40.702Z,40.70
2019-02-19T15:22:34.551Z,41.10
2019-02-19T15:25:21.458Z,40.80
2019-02-19T15:28:16.739Z,41.30
2019-02-19T15:31:05.517Z,42.00
2019-02-19T15:33:42.424Z,42.60
2019-02-19T15:36:24.453Z,43.90
2019-02-19T15:39:18.722Z,43.50
2019-02-19T15:42:05.948Z,42.90
2019-02-19T15:44:52.532Z,40.70
2019-02-19T15:47:42.942Z,39.70
2019-02-19T15:50:34.330Z,42.60
2019-02-19T15:56:17.529Z,41.30
2019-02-19T15:58:56.293Z,41.90
2019-02-19T16:01:36.026Z,42.20
2019-02-19T16:04:09.942Z,41.30
2019-02-19T16:06:58.273Z,41.90
2019-02-19T16:09:53.857Z,41.20
2019-02-19T16:12:27.805Z,42.40
2019-02-19T16:15:06.552Z,42.60
2019-02-19T16:17:44.967Z,42.60
2019-02-19T16:20:31.913Z,44.10
2019-02-19T16:23:13.644Z,45.30
2019-02-19T16:26:02.373Z,46.70
2019-02-19T16:28:50.541Z,44.80
2019-02-19T16:31:49.160Z,45.70
2019-02-19T16:34:24.468Z,46.20
2019-02-19T16:37:02.596Z,46.90
2019-02-19T16:39:56.733Z,46.50
2019-02-19T16:42:57.098Z,47.70
2019-02-19T16:45:32.285Z,49.20
2019-02-19T16:48:11.572Z,48.10
2019-02-19T16:50:57.422Z,48.00
2019-02-19T16:53:48.415Z,49.50
2019-02-19T16:56:48.831Z,50.70
2019-02-19T16:59:29.771Z,50.80
2019-02-19T17:02:05.991Z,54.40
2019-02-19T17:04:41.877Z,55.20
2019-02-19T17:07:48.076Z,54.90
2019-02-19T17:10:34.773Z,55.80
2019-02-19T17:13:41.859Z,56.80
2019-02-19T17:16:25.017Z,58.50
2019-02-19T17:19:08.142Z,59.70
2019-02-19T17:22:09.944Z,58.50
2019-02-19T17:24:47.680Z,57.20
2019-02-19T17:27:23.462Z,56.00
2019-02-19T17:30:10.036Z,56.60
2019-02-19T17:33:03.744Z,56.60
2019-02-19T17:35:57.542Z,57.90
2019-02-19T17:38:44.213Z,59.20
2019-02-19T17:41:38.065Z,60.20
2019-02-19T17:44:17.148Z,62.20
2019-02-19T17:47:16.434Z,62.80
2019-02-19T17:50:02.041Z,64.00
2019-02-19T17:52:48.915Z,64.90
2019-02-19T17:55:42.691Z,66.50
2019-02-19T17:58:33.459Z,67.60
2019-02-19T18:01:27.391Z,68.20
2019-02-19T18:04:15.294Z,69.90
2019-02-19T18:06:53.936Z,72.00
2019-02-19T18:09:33.831Z,72.30
2019-02-19T18:12:24.892Z,72.30
2019-02-19T18:15:18.865Z,72.40
2019-02-19T18:17:59.278Z,73.20
2019-02-19T18:20:28.437Z,73.00
2019-02-19T18:22:57.315Z,73.60
2019-02-19T18:25:26.120Z,73.10
2019-02-19T18:27:55.205Z,72.90
2019-02-19T18:30:24.165Z,72.20
2019-02-19T18:32:53.107Z,73.00
2019-02-19T18:35:22.517Z,74.00
2019-02-19T18:37:51.589Z,74.10
2019-02-19T18:40:20.500Z,73.80
2019-02-19T18:42:49.509Z,73.60
2019-02-19T18:45:18.575Z,73.80
2019-02-19T18:47:47.024Z,74.40
2019-02-19T18:50:15.867Z,74.30
2019-02-19T18:52:44.939Z,75.20
2019-02-19T18:55:13.805Z,76.10
2019-02-19T18:57:42.911Z,76.10
2019-02-19T19:00:13.496Z,76.90
2019-02-19T19:02:42.828Z,77.20
2019-02-19T19:05:11.727Z,77.20
2019-02-19T19:07:40.732Z,77.80
2019-02-19T19:10:09.931Z,77.90
2019-02-19T19:12:38.831Z,79.00
2019-02-19T19:15:08.142Z,79.10
2019-02-19T19:17:37.028Z,79.40
2019-02-19T19:20:06.072Z,79.30
2019-02-19T19:22:35.409Z,80.00
2019-02-19T19:25:04.851Z,80.90
2019-02-19T19:27:34.400Z,81.60
2019-02-19T19:30:03.957Z,83.00
2019-02-19T19:32:33.319Z,83.20
2019-02-19T19:35:02.658Z,83.80
2019-02-19T19:37:31.759Z,84.20
2019-02-19T19:40:00.709Z,84.40
2019-02-19T19:42:29.972Z,85.00
2019-02-19T19:44:59.135Z,85.60
2019-02-19T19:47:28.648Z,86.50
2019-02-19T19:49:57.914Z,86.60
2019-02-19T19:52:27.356Z,87.00
2019-02-19T19:54:56.490Z,87.90
2019-02-19T19:57:25.836Z,87.90
2019-02-19T19:59:54.989Z,88.90
2019-02-19T20:02:24.182Z,88.30
2019-02-19T20:04:53.239Z,88.90
2019-02-19T20:07:22.129Z,89.50
2019-02-19T20:09:51.236Z,89.30
2019-02-19T20:12:20.768Z,90.10
2019-02-19T20:14:50.103Z,90.50
2019-02-19T20:17:19.100Z,90.30
2019-02-19T20:19:48.294Z,90.50
2019-02-19T20:22:17.220Z,90.70
2019-02-19T20:24:46.658Z,90.70
2019-02-19T20:27:16.205Z,91.30
2019-02-19T20:29:45.471Z,91.40
2019-02-19T20:32:14.617Z,91.20
2019-02-19T20:34:44.194Z,91.20
2019-02-19T20:37:13.514Z,91.20
2019-02-19T20:39:42.974Z,91.60
2019-02-19T20:42:12.314Z,91.50
2019-02-19T20:44:41.224Z,91.90
2019-02-19T20:47:10.071Z,91.80
2019-02-19T20:49:39.287Z,91.80
2019-02-19T20:52:08.380Z,92.00
2019-02-19T20:54:37.630Z,92.00
2019-02-19T20:57:06.888Z,92.30
2019-02-19T20:59:35.716Z,92.50
2019-02-19T21:02:04.740Z,92.60
2019-02-19T21:04:34.215Z,93.00
2019-02-19T21:07:03.183Z,93.20
2019-02-19T21:09:42.970Z,93.30
2019-02-19T21:12:03.085Z,93.00
2019-02-19T21:14:31.918Z,93.20
2019-02-19T21:17:00.972Z,93.20
2019-02-19T21:19:30.149Z,93.40
2019-02-19T21:21:59.072Z,93.20
2019-02-19T21:24:30.380Z,93.90
2019-02-19T21:27:02.291Z,93.80
2019-02-19T21:29:31.566Z,93.80
2019-02-19T21:32:01.107Z,93.90
2019-02-19T21:34:29.928Z,94.00
2019-02-19T21:36:58.959Z,93.90
2019-02-19T21:39:28.170Z,94.20
2019-02-19T21:41:57.235Z,94.20
2019-02-19T21:44:26.327Z,94.40
2019-02-19T21:46:55.270Z,94.50
2019-02-19T21:49:24.258Z,94.70
2019-02-19T21:51:54.364Z,94.90
2019-02-19T21:54:23.518Z,95.10
2019-02-19T21:56:52.345Z,95.10
2019-02-19T21:59:21.262Z,95.00
2019-02-19T22:01:50.503Z,95.00
2019-02-19T22:04:19.350Z,95.10
2019-02-19T22:06:48.263Z,94.80
2019-02-19T22:09:17.159Z,94.70
2019-02-19T22:11:46.143Z,94.80
2019-02-19T22:14:15.005Z,95.20
2019-02-19T22:16:44.121Z,95.30
2019-02-19T22:19:13.021Z,95.10
2019-02-19T22:21:46.858Z,95.30
2019-02-19T22:24:17.379Z,95.50
2019-02-19T22:26:46.224Z,95.40
2019-02-19T22:29:15.214Z,95.60
2019-02-19T22:31:44.283Z,95.50
2019-02-19T22:34:13.111Z,95.40
2019-02-19T22:36:42.120Z,95.90
2019-02-19T22:39:11.035Z,96.00
2019-02-19T22:41:39.836Z,96.00
2019-02-19T22:44:08.729Z,96.10
2019-02-19T22:46:37.614Z,96.10
2019-02-19T22:49:06.528Z,96.40
2019-02-19T22:51:35.413Z,96.20
2019-02-19T22:54:26.922Z,95.80
2019-02-19T22:56:55.816Z,95.40
2019-02-19T22:59:24.739Z,95.40
2019-02-19T23:02:01.516Z,94.80
2019-02-19T23:04:30.651Z,94.40
2019-02-19T23:06:59.572Z,94.50
2019-02-19T23:09:28.564Z,94.90
2019-02-19T23:11:57.388Z,94.80
2019-02-19T23:14:26.220Z,95.00
2019-02-19T23:16:55.095Z,95.00
2019-02-19T23:19:23.956Z,95.40
2019-02-19T23:21:52.765Z,95.60
2019-02-19T23:24:21.718Z,96.00
2019-02-19T23:26:50.637Z,96.40
2019-02-19T23:29:19.532Z,96.50
2019-02-19T23:31:48.398Z,96.60
2019-02-19T23:34:17.234Z,96.90
2019-02-19T23:36:58.135Z,97.00
2019-02-19T23:39:27.032Z,97.20
2019-02-19T23:41:55.991Z,96.70
2019-02-19T23:44:24.919Z,96.50
2019-02-19T23:46:53.851Z,96.40
2019-02-19T23:49:22.677Z,96.60
2019-02-19T23:51:51.529Z,96.60
2019-02-19T23:54:20.352Z,96.70
2019-02-19T23:56:49.229Z,96.20
2019-02-19T23:59:18.045Z,95.90
